Terminal Aerodrome Forecast
Issued by NWS

Home | Current Version | Previous Version | Text Only | Print | Product List | Glossary On
Versions: 1 2 3 4 5 6 7 8 9 10 11 12 13 14 15 16 17 18 19 20 21 22 23 24 25 26 27 28 29 30 31 32 33 34 35 36 37 38 39 40 41 42 43 44 45 46
000
FTUS45 KBOU 271734
TAFBJC
TAF
KBJC 271734Z 2718/2818 21007KT P6SM FEW220
     FM271900 24015G25KT P6SM SCT220
     FM280000 23011KT P6SM FEW080 SCT140 BKN220
     FM280700 32012KT P6SM FEW070 SCT110 BKN200
     FM280900 05009KT P6SM FEW050 SCT100 BKN200
     FM281100 13007KT P6SM SCT050 BKN110=

USA.gov is the U.S. government's official web portal to all federal, state and local government web resources and services.